Time;durP1;ratioP1;P1;durP2;ratioP2;P2;SDS_P1;SDS_P2;PMS_P1;PMS_P2;Temp;Humidity;BMP_temperature;BMP_pressure;BME280_temperature;BME280_humidity;BME280_pressure;Samples;Min_cycle;Max_cycle;Signal;HPM_P1;HPM_P2
2022/10/19 00:01:25;;;;;;;18.10;7.50;;;18.20;70.90;;;;;;5052082;28;20048;-77
2022/10/19 00:03:52;;;;;;;15.98;7.00;;;18.20;70.90;;;;;;5026177;28;20033;-75
2022/10/19 00:06:28;;;;;;;17.80;7.28;;;18.20;70.80;;;;;;5052535;28;20494;-77
2022/10/19 00:08:57;;;;;;;15.27;8.10;;;18.20;70.80;;;;;;5048934;28;20377;-78
2022/10/19 00:11:23;;;;;;;8.90;6.88;;;18.20;70.80;;;;;;5052635;28;20021;-77
2022/10/19 00:13:49;;;;;;;15.43;7.78;;;18.20;70.80;;;;;;5034512;28;20021;-76
2022/10/19 00:16:16;;;;;;;16.17;7.97;;;18.20;70.70;;;;;;5052324;28;20061;-76
2022/10/19 00:18:43;;;;;;;11.98;7.90;;;18.20;70.80;;;;;;5054993;28;20057;-77
2022/10/19 00:21:12;;;;;;;14.15;8.82;;;18.20;70.70;;;;;;5052457;28;20029;-77
2022/10/19 00:23:38;;;;;;;16.80;7.85;;;18.20;70.80;;;;;;5052571;28;20415;-76
2022/10/19 00:26:04;;;;;;;16.27;7.60;;;18.20;70.90;;;;;;5052379;28;20361;-76
2022/10/19 00:28:30;;;;;;;14.20;7.75;;;18.20;70.90;;;;;;5053437;28;20025;-76
2022/10/19 00:31:00;;;;;;;10.32;7.00;;;18.20;71.00;;;;;;5052301;28;20017;-76
2022/10/19 00:33:26;;;;;;;12.15;6.90;;;18.20;70.90;;;;;;5033631;28;20033;-77
2022/10/19 00:35:52;;;;;;;19.55;8.00;;;18.20;70.90;;;;;;5028975;28;20107;-78
2022/10/19 00:38:19;;;;;;;15.85;7.40;;;18.20;70.90;;;;;;5050465;28;20223;-77
2022/10/19 00:40:45;;;;;;;14.57;8.60;;;18.20;70.90;;;;;;5052252;28;20036;-76
2022/10/19 00:43:16;;;;;;;14.45;7.40;;;18.20;70.90;;;;;;5032133;28;20823;-75
2022/10/19 00:45:42;;;;;;;15.07;7.28;;;18.20;70.90;;;;;;5029934;28;20480;-76
2022/10/19 00:48:12;;;;;;;20.88;8.23;;;18.20;70.90;;;;;;5050435;28;20037;-77
2022/10/19 00:50:38;;;;;;;15.75;8.02;;;18.20;70.90;;;;;;5034236;28;20025;-77
2022/10/19 00:53:04;;;;;;;17.58;7.57;;;18.20;70.90;;;;;;5033806;28;20465;-77
2022/10/19 00:55:31;;;;;;;12.50;6.00;;;18.20;70.90;;;;;;5051887;28;20040;-76
2022/10/19 00:57:57;;;;;;;13.95;6.53;;;18.20;70.80;;;;;;5051798;28;20025;-76
2022/10/19 01:00:23;;;;;;;13.07;6.68;;;18.20;70.80;;;;;;5030182;28;20050;-76
2022/10/19 01:02:49;;;;;;;12.98;6.85;;;18.20;70.80;;;;;;5031674;28;20072;-76
2022/10/19 01:05:16;;;;;;;11.43;6.53;;;18.20;70.90;;;;;;5031580;28;20048;-77
2022/10/19 01:07:42;;;;;;;13.25;7.15;;;18.20;70.90;;;;;;5032032;28;20037;-76
2022/10/19 01:10:08;;;;;;;9.20;6.10;;;18.20;70.90;;;;;;5031581;28;20013;-76
2022/10/19 01:12:44;;;;;;;14.90;7.10;;;18.20;70.90;;;;;;5023591;28;20021;-76
2022/10/19 01:15:28;;;;;;;8.23;5.93;;;18.20;71.00;;;;;;5031645;28;20127;-76
2022/10/19 01:18:06;;;;;;;9.57;6.55;;;18.20;71.00;;;;;;5027930;28;20049;-76
2022/10/19 01:20:41;;;;;;;15.82;6.88;;;18.20;71.00;;;;;;5031562;28;20026;-76
2022/10/19 01:23:16;;;;;;;8.55;6.10;;;18.20;71.00;;;;;;5030728;28;20028;-76
2022/10/19 01:26:07;;;;;;;11.80;6.50;;;18.20;70.90;;;;;;5030035;28;20030;-78
2022/10/19 01:29:10;;;;;;;14.43;6.50;;;18.20;70.90;;;;;;5031731;28;20029;-77
2022/10/19 01:31:52;;;;;;;17.88;7.40;;;18.30;71.00;;;;;;5028762;28;20033;-75
2022/10/19 01:34:31;;;;;;;12.07;7.35;;;18.30;70.90;;;;;;5029610;28;20113;-77
2022/10/19 01:37:06;;;;;;;11.43;6.40;;;18.30;70.90;;;;;;5029214;28;20109;-76
2022/10/19 01:39:46;;;;;;;12.15;7.63;;;18.30;70.90;;;;;;5029697;28;20040;-77
2022/10/19 01:42:21;;;;;;;16.30;7.13;;;18.30;71.00;;;;;;5031627;28;20084;-77
2022/10/19 01:44:54;;;;;;;15.02;6.72;;;18.30;71.00;;;;;;5031824;28;20029;-76
2022/10/19 01:47:30;;;;;;;15.33;7.23;;;18.30;71.00;;;;;;5029608;28;20083;-76
2022/10/19 01:50:04;;;;;;;10.65;6.25;;;18.30;71.00;;;;;;5026325;28;20108;-78
2022/10/19 01:52:32;;;;;;;19.17;7.95;;;18.30;71.00;;;;;;5026816;28;20477;-76
2022/10/19 01:55:00;;;;;;;14.50;7.40;;;18.40;71.00;;;;;;5025769;28;20424;-76
2022/10/19 01:57:31;;;;;;;9.43;5.97;;;18.40;71.00;;;;;;5025741;28;20037;-76
2022/10/19 01:59:57;;;;;;;18.08;8.02;;;18.40;71.00;;;;;;5039013;28;20055;-76
2022/10/19 02:02:25;;;;;;;12.32;6.47;;;18.40;70.90;;;;;;5054845;28;20021;-77
2022/10/19 02:04:55;;;;;;;17.90;6.70;;;18.40;70.90;;;;;;5036759;28;20028;-76
2022/10/19 02:07:23;;;;;;;10.60;6.80;;;18.40;70.90;;;;;;5036896;28;20036;-77
2022/10/19 02:09:49;;;;;;;12.43;8.13;;;18.40;70.90;;;;;;5054695;28;20028;-76
2022/10/19 02:12:16;;;;;;;21.52;7.18;;;18.40;70.90;;;;;;5054524;28;20025;-76
2022/10/19 02:14:46;;;;;;;14.98;7.57;;;18.50;71.10;;;;;;5054671;28;20119;-77
2022/10/19 02:17:15;;;;;;;17.83;7.15;;;18.40;71.00;;;;;;5054397;28;20167;-76
2022/10/19 02:19:42;;;;;;;16.13;7.20;;;18.50;71.00;;;;;;5054471;28;20539;-77
2022/10/19 02:22:08;;;;;;;11.40;6.95;;;18.50;70.90;;;;;;5054423;28;20017;-76
2022/10/19 02:24:37;;;;;;;12.95;7.05;;;18.50;70.90;;;;;;5049460;28;20104;-76
2022/10/19 02:27:05;;;;;;;21.42;6.97;;;18.50;70.90;;;;;;5036241;28;20025;-76
2022/10/19 02:29:33;;;;;;;12.68;6.88;;;18.50;70.90;;;;;;5053942;28;20104;-76
2022/10/19 02:31:59;;;;;;;9.88;6.38;;;18.50;70.90;;;;;;5054052;28;20024;-76
2022/10/19 02:34:28;;;;;;;12.77;6.47;;;18.50;70.90;;;;;;5036400;28;20187;-77
2022/10/19 02:36:54;;;;;;;12.60;6.15;;;18.50;70.90;;;;;;5051448;28;20401;-76
2022/10/19 02:39:20;;;;;;;13.73;6.53;;;18.50;70.90;;;;;;5053922;28;20028;-76
2022/10/19 02:41:56;;;;;;;9.63;6.35;;;18.50;70.90;;;;;;5054022;28;20025;-76
2022/10/19 02:44:49;;;;;;;20.05;6.43;;;18.50;70.80;;;;;;5052546;28;20021;-77
2022/10/19 02:47:30;;;;;;;15.20;6.10;;;18.60;70.90;;;;;;5050760;28;20029;-76
2022/10/19 02:49:56;;;;;;;8.00;5.60;;;18.60;70.80;;;;;;5051388;28;20033;-77
2022/10/19 02:52:21;;;;;;;13.25;6.85;;;18.60;70.70;;;;;;5053950;28;20048;-77
2022/10/19 02:54:47;;;;;;;10.52;5.88;;;18.60;70.60;;;;;;5035868;28;20488;-76
2022/10/19 02:57:31;;;;;;;9.30;6.22;;;18.60;70.60;;;;;;5035858;28;20381;-76
2022/10/19 02:59:57;;;;;;;9.48;5.90;;;18.60;70.60;;;;;;5051040;28;20049;-76
2022/10/19 03:02:26;;;;;;;8.80;6.18;;;18.60;70.50;;;;;;5035630;28;20139;-77
2022/10/19 03:04:54;;;;;;;20.08;7.20;;;18.60;70.40;;;;;;5035681;28;20017;-77
2022/10/19 03:07:21;;;;;;;16.23;6.70;;;18.60;70.40;;;;;;5053486;28;20029;-77
2022/10/19 03:09:47;;;;;;;9.10;6.07;;;18.60;70.40;;;;;;5053561;28;20106;-76
2022/10/19 03:12:17;;;;;;;12.60;6.40;;;18.50;70.40;;;;;;5035704;28;20103;-77
2022/10/19 03:14:42;;;;;;;29.70;7.63;;;18.50;70.40;;;;;;5053800;28;20104;-77
2022/10/19 03:17:09;;;;;;;11.27;5.97;;;18.50;70.50;;;;;;5053194;28;20587;-77
2022/10/19 03:19:35;;;;;;;13.48;7.72;;;18.50;70.50;;;;;;5032949;28;20520;-77
2022/10/19 03:22:01;;;;;;;11.50;6.13;;;18.50;70.60;;;;;;5053550;28;20060;-77
2022/10/19 03:24:29;;;;;;;19.30;7.95;;;18.50;70.70;;;;;;5053578;28;20025;-77
2022/10/19 03:26:55;;;;;;;11.32;6.80;;;18.50;70.80;;;;;;5035612;28;20107;-78
2022/10/19 03:29:24;;;;;;;13.77;6.65;;;18.50;70.90;;;;;;5034882;28;20052;-76
2022/10/19 03:31:50;;;;;;;13.50;6.43;;;18.50;70.80;;;;;;5052683;28;20028;-76
2022/10/19 03:34:16;;;;;;;7.78;6.00;;;18.50;70.90;;;;;;5053082;28;20020;-77
2022/10/19 03:36:41;;;;;;;11.45;6.15;;;18.50;70.90;;;;;;5051487;28;20044;-77
2022/10/19 03:39:10;;;;;;;11.63;6.15;;;18.50;70.80;;;;;;5052902;28;20075;-77
2022/10/19 03:41:37;;;;;;;18.77;7.18;;;18.50;70.80;;;;;;5050575;28;20083;-75
2022/10/19 03:44:06;;;;;;;10.38;6.80;;;18.50;70.80;;;;;;5035256;28;20083;-77
2022/10/19 03:46:33;;;;;;;9.82;5.60;;;18.50;70.90;;;;;;5034847;28;20036;-77
2022/10/19 03:48:59;;;;;;;11.80;6.40;;;18.50;70.80;;;;;;5035084;28;20408;-77
2022/10/19 03:51:27;;;;;;;11.80;6.95;;;18.50;70.80;;;;;;5034909;28;20017;-77
2022/10/19 03:53:56;;;;;;;12.60;7.40;;;18.50;70.80;;;;;;5034540;28;20032;-77
2022/10/19 03:56:23;;;;;;;16.75;8.27;;;18.40;70.90;;;;;;5033025;28;20057;-77
2022/10/19 03:58:50;;;;;;;10.27;7.63;;;18.40;71.10;;;;;;5052357;28;20025;-76
2022/10/19 04:01:19;;;;;;;10.75;6.80;;;18.40;71.20;;;;;;5052001;28;20033;-76
2022/10/19 04:03:45;;;;;;;13.82;7.47;;;18.40;71.30;;;;;;5052374;28;20421;-77
2022/10/19 04:06:16;;;;;;;14.10;7.82;;;18.30;71.30;;;;;;5034199;28;20483;-78
2022/10/19 04:08:43;;;;;;;15.02;7.95;;;18.30;71.30;;;;;;5052791;28;20094;-77
2022/10/19 04:11:13;;;;;;;10.57;7.55;;;18.30;71.30;;;;;;5052250;28;20376;-79
2022/10/19 04:13:39;;;;;;;15.43;7.72;;;18.20;72.10;;;;;;5033091;28;21073;-76
2022/10/19 04:16:06;;;;;;;10.10;7.40;;;18.20;71.30;;;;;;5051743;28;20032;-79
2022/10/19 04:18:32;;;;;;;12.82;7.20;;;18.20;71.40;;;;;;5034445;28;20020;-78
2022/10/19 04:21:00;;;;;;;18.92;7.30;;;18.20;71.60;;;;;;5034442;28;20032;-75
2022/10/19 04:23:28;;;;;;;9.82;6.22;;;18.20;71.70;;;;;;5033889;28;20056;-78
2022/10/19 04:26:06;;;;;;;14.05;5.75;;;18.20;71.70;;;;;;5052332;28;20017;-78
2022/10/19 04:28:32;;;;;;;13.57;6.43;;;18.20;71.80;;;;;;5031701;28;20114;-76
2022/10/19 04:31:02;;;;;;;16.88;7.47;;;18.20;71.70;;;;;;5052566;28;20029;-78
2022/10/19 04:33:27;;;;;;;10.20;6.75;;;18.20;71.70;;;;;;5033910;28;20377;-77
2022/10/19 04:36:01;;;;;;;14.00;7.40;;;18.20;71.70;;;;;;5052177;28;20021;-77
2022/10/19 04:38:28;;;;;;;16.23;8.20;;;18.20;71.60;;;;;;5033995;28;20782;-75
2022/10/19 04:40:55;;;;;;;14.05;6.85;;;18.20;71.50;;;;;;5052049;28;20029;-77
2022/10/19 04:43:21;;;;;;;11.15;6.63;;;18.20;71.40;;;;;;5051873;28;20059;-77
2022/10/19 04:45:49;;;;;;;13.60;6.55;;;18.30;71.50;;;;;;5033832;28;20115;-76
2022/10/19 04:48:15;;;;;;;9.32;6.18;;;18.20;71.40;;;;;;5051829;28;20514;-77
2022/10/19 04:50:41;;;;;;;13.85;6.90;;;18.30;71.50;;;;;;5051680;28;20025;-77
2022/10/19 04:53:09;;;;;;;9.90;6.82;;;18.30;71.50;;;;;;5033671;28;20021;-76
2022/10/19 04:55:40;;;;;;;9.65;7.50;;;18.30;71.40;;;;;;5052090;28;20104;-77
2022/10/19 04:58:06;;;;;;;15.32;7.20;;;18.30;71.40;;;;;;5033574;28;20029;-76
2022/10/19 05:00:37;;;;;;;10.05;6.65;;;18.30;71.40;;;;;;5033440;28;20094;-77
2022/10/19 05:03:03;;;;;;;19.55;8.30;;;18.30;71.40;;;;;;5051850;28;20049;-77
2022/10/19 05:05:30;;;;;;;11.55;7.22;;;18.30;71.30;;;;;;5051730;28;20064;-76
2022/10/19 05:07:56;;;;;;;11.65;7.03;;;18.30;71.40;;;;;;5051758;28;20140;-77
2022/10/19 05:10:22;;;;;;;14.63;7.28;;;18.40;71.40;;;;;;5051968;28;20100;-76
2022/10/19 05:12:51;;;;;;;10.25;6.22;;;18.40;71.50;;;;;;5051249;28;20047;-77
2022/10/19 05:15:16;;;;;;;13.80;6.22;;;18.40;71.40;;;;;;5033044;28;20033;-76
2022/10/19 05:17:42;;;;;;;12.20;6.68;;;18.40;71.40;;;;;;5033716;28;20078;-77
2022/10/19 05:20:10;;;;;;;10.30;6.75;;;18.40;71.30;;;;;;5051386;28;20101;-77
2022/10/19 05:22:37;;;;;;;12.15;7.35;;;18.50;71.30;;;;;;5051075;28;20435;-76
2022/10/19 05:25:04;;;;;;;10.25;6.57;;;18.50;71.30;;;;;;5051125;28;20021;-77
2022/10/19 05:27:29;;;;;;;16.48;6.95;;;18.50;71.20;;;;;;5030775;28;20162;-77
2022/10/19 05:29:58;;;;;;;12.48;5.70;;;18.50;71.10;;;;;;5050966;28;20100;-76
2022/10/19 05:32:27;;;;;;;14.38;5.68;;;18.50;71.10;;;;;;5051966;28;20025;-76
2022/10/19 05:34:53;;;;;;;9.45;5.30;;;18.50;71.10;;;;;;5054194;28;20021;-78
2022/10/19 05:37:20;;;;;;;8.68;5.50;;;18.60;71.10;;;;;;5056744;28;20037;-76
2022/10/19 05:39:46;;;;;;;17.42;5.00;;;18.60;71.00;;;;;;5038355;28;20029;-76
2022/10/19 05:42:12;;;;;;;14.23;4.55;;;18.60;70.90;;;;;;5056094;28;20032;-76
2022/10/19 05:44:38;;;;;;;12.38;4.82;;;18.60;70.80;;;;;;5038357;28;20127;-76
2022/10/19 05:47:03;;;;;;;8.98;4.40;;;18.60;70.70;;;;;;5055786;28;20048;-77
2022/10/19 05:49:29;;;;;;;6.78;4.28;;;18.60;70.60;;;;;;5038236;28;20029;-77
2022/10/19 05:51:55;;;;;;;6.57;4.13;;;18.70;70.60;;;;;;5055601;28;20029;-78
2022/10/19 05:54:21;;;;;;;9.80;5.13;;;18.70;70.60;;;;;;5056030;28;20115;-76
2022/10/19 05:56:47;;;;;;;8.13;5.03;;;18.60;70.50;;;;;;5056406;28;20136;-75
2022/10/19 05:59:17;;;;;;;9.73;4.80;;;18.70;70.60;;;;;;5055451;28;20074;-77
2022/10/19 06:01:43;;;;;;;8.73;4.47;;;18.70;70.50;;;;;;5056089;28;20028;-76
2022/10/19 06:04:09;;;;;;;8.30;4.13;;;18.70;70.50;;;;;;5055534;28;20025;-77
2022/10/19 06:06:35;;;;;;;6.32;4.05;;;18.70;70.50;;;;;;5055673;28;20029;-76
2022/10/19 06:09:03;;;;;;;5.82;3.65;;;18.70;70.50;;;;;;5055311;28;20025;-77
2022/10/19 06:11:35;;;;;;;5.97;4.25;;;18.70;70.50;;;;;;5037104;28;20025;-77
2022/10/19 06:14:03;;;;;;;5.95;4.22;;;18.80;70.30;;;;;;5037980;28;20436;-77
2022/10/19 06:16:31;;;;;;;6.30;3.97;;;18.80;70.30;;;;;;5037728;28;20477;-78
2022/10/19 06:18:58;;;;;;;7.60;3.90;;;18.80;70.40;;;;;;5037656;28;20032;-77
2022/10/19 06:21:26;;;;;;;9.82;4.85;;;18.90;70.30;;;;;;5055618;28;20044;-78
2022/10/19 06:23:57;;;;;;;6.03;4.03;;;18.90;70.20;;;;;;5037814;28;20025;-76
2022/10/19 06:26:27;;;;;;;6.40;4.10;;;18.90;70.10;;;;;;5054914;28;20481;-76
2022/10/19 06:29:00;;;;;;;11.13;3.75;;;18.90;70.10;;;;;;5055088;28;20033;-77
2022/10/19 06:31:28;;;;;;;7.47;4.88;;;18.90;70.00;;;;;;5037863;28;20021;-77
2022/10/19 06:33:57;;;;;;;9.95;5.00;;;19.00;70.00;;;;;;5037197;28;20116;-75
2022/10/19 06:36:28;;;;;;;11.13;4.20;;;19.00;69.80;;;;;;5037337;28;20033;-76
2022/10/19 06:38:58;;;;;;;11.95;4.13;;;19.00;69.70;;;;;;5055545;28;20025;-76
2022/10/19 06:41:24;;;;;;;8.60;4.60;;;19.00;69.80;;;;;;5054513;28;20031;-75
2022/10/19 06:43:51;;;;;;;9.70;4.63;;;19.00;69.80;;;;;;5033865;28;20029;-78
2022/10/19 06:46:22;;;;;;;9.75;4.57;;;19.10;69.80;;;;;;5035592;28;20059;-76
2022/10/19 06:48:59;;;;;;;8.18;5.03;;;19.10;69.80;;;;;;5053888;28;20021;-76
2022/10/19 06:51:26;;;;;;;13.73;5.93;;;19.10;69.70;;;;;;5053833;28;20036;-78
2022/10/19 06:53:53;;;;;;;9.80;5.97;;;19.20;69.80;;;;;;5035833;28;20357;-76
2022/10/19 06:56:19;;;;;;;18.25;5.30;;;19.30;69.90;;;;;;5053538;28;20052;-75
2022/10/19 06:58:45;;;;;;;9.65;4.90;;;19.40;69.80;;;;;;5052618;28;20040;-76
2022/10/19 07:01:12;;;;;;;11.63;6.05;;;19.40;69.60;;;;;;5052934;28;20053;-72
2022/10/19 07:03:39;;;;;;;15.02;5.50;;;19.50;69.40;;;;;;5053670;28;20033;-73
2022/10/19 07:06:07;;;;;;;13.25;5.13;;;19.50;69.30;;;;;;5053450;28;20029;-73
2022/10/19 07:08:34;;;;;;;9.25;5.18;;;19.50;69.30;;;;;;5035769;28;20039;-73
2022/10/19 07:11:05;;;;;;;11.82;5.28;;;19.60;69.30;;;;;;5054744;28;20473;-73
2022/10/19 07:13:31;;;;;;;9.43;4.57;;;19.70;69.10;;;;;;5054817;28;20481;-73
2022/10/19 07:15:59;;;;;;;9.93;5.38;;;19.70;68.80;;;;;;5053953;28;20032;-73
2022/10/19 07:18:26;;;;;;;9.32;5.32;;;19.80;68.70;;;;;;5032139;28;20056;-74
2022/10/19 07:21:00;;;;;;;11.43;5.80;;;19.80;68.60;;;;;;5050015;28;20021;-73
2022/10/19 07:23:26;;;;;;;;;;;19.90;68.30;;;;;;5054674;28;20105;-73
2022/10/19 07:25:58;;;;;;;16.17;5.35;;;19.90;68.60;;;;;;5052417;28;19908;-73
2022/10/19 07:28:24;;;;;;;9.95;5.90;;;20.00;67.90;;;;;;5053369;28;20045;-73
2022/10/19 07:30:50;;;;;;;11.23;5.68;;;20.00;67.80;;;;;;5052463;28;20490;-73
2022/10/19 07:33:15;;;;;;;20.73;6.03;;;20.00;67.60;;;;;;5052182;28;20408;-73
2022/10/19 07:35:41;;;;;;;10.65;5.93;;;20.00;67.50;;;;;;5052397;28;20401;-73
2022/10/19 07:38:07;;;;;;;11.90;5.97;;;20.00;67.40;;;;;;5052621;28;20036;-72
2022/10/19 07:40:33;;;;;;;17.55;5.88;;;20.00;67.30;;;;;;5053320;28;20057;-72
2022/10/19 07:42:59;;;;;;;11.98;5.93;;;20.10;68.20;;;;;;5053226;28;20362;-73
2022/10/19 07:45:25;;;;;;;15.48;6.70;;;20.10;67.30;;;;;;5054390;28;20031;-74
2022/10/19 07:47:51;;;;;;;14.07;7.00;;;20.20;67.20;;;;;;5036319;28;20041;-74
2022/10/19 07:50:16;;;;;;;14.45;6.30;;;20.20;67.20;;;;;;5054320;28;20096;-73
2022/10/19 07:52:42;;;;;;;11.13;6.22;;;20.30;67.20;;;;;;5036080;28;20025;-73
2022/10/19 07:55:08;;;;;;;11.80;6.47;;;20.40;67.30;;;;;;5036272;28;20423;-73
2022/10/19 07:57:35;;;;;;;15.75;6.05;;;20.50;67.30;;;;;;5035416;28;20033;-73
2022/10/19 08:00:04;;;;;;;10.90;5.75;;;20.50;67.10;;;;;;5053999;28;20060;-73
2022/10/19 08:02:29;;;;;;;14.60;5.95;;;20.60;67.00;;;;;;5053848;28;20453;-74
2022/10/19 08:04:55;;;;;;;13.55;5.72;;;20.70;66.30;;;;;;5053525;28;20048;-73
2022/10/19 08:07:21;;;;;;;11.02;6.18;;;20.80;66.10;;;;;;5036016;28;20037;-73
2022/10/19 08:09:47;;;;;;;15.07;5.82;;;20.90;65.80;;;;;;5053689;28;20033;-73
2022/10/19 08:12:13;;;;;;;7.75;6.00;;;20.90;65.40;;;;;;5053792;28;20087;-74
2022/10/19 08:14:38;;;;;;;13.30;6.32;;;20.90;65.30;;;;;;5036210;28;20112;-73
2022/10/19 08:17:04;;;;;;;12.80;5.18;;;21.00;65.40;;;;;;5035674;28;20025;-74
2022/10/19 08:19:30;;;;;;;14.38;6.15;;;21.00;65.30;;;;;;5036025;28;20087;-73
2022/10/19 08:21:56;;;;;;;9.98;6.47;;;21.10;65.10;;;;;;5053835;28;20445;-74
2022/10/19 08:24:21;;;;;;;12.43;5.78;;;21.10;65.00;;;;;;5035824;28;20025;-73
2022/10/19 08:26:49;;;;;;;12.52;5.82;;;21.20;64.80;;;;;;5035645;28;20033;-73
2022/10/19 08:29:18;;;;;;;15.48;6.53;;;21.30;64.30;;;;;;5053476;28;20048;-74
2022/10/19 08:31:46;;;;;;;24.95;7.70;;;21.30;63.50;;;;;;5053844;28;20354;-74
2022/10/19 08:34:13;;;;;;;16.52;7.80;;;21.40;63.40;;;;;;5053511;28;20028;-73
2022/10/19 08:36:39;;;;;;;15.75;6.47;;;21.40;63.20;;;;;;5053370;28;20039;-74
2022/10/19 08:39:07;;;;;;;14.05;6.65;;;21.50;63.40;;;;;;5035564;28;20376;-74
2022/10/19 08:41:39;;;;;;;7.68;6.05;;;21.50;63.00;;;;;;5053217;28;20044;-74
2022/10/19 08:44:29;;;;;;;8.82;6.05;;;21.60;62.90;;;;;;5053169;28;20032;-74
2022/10/19 08:47:28;;;;;;;14.45;6.25;;;21.70;62.40;;;;;;5053524;28;20037;-74
2022/10/19 08:49:56;;;;;;;11.77;6.22;;;21.80;61.70;;;;;;5035578;28;20025;-74
2022/10/19 08:52:28;;;;;;;9.95;6.47;;;21.90;61.60;;;;;;5052957;28;20032;-73
2022/10/19 08:55:03;;;;;;;11.00;6.28;;;22.00;61.30;;;;;;5053079;28;20078;-73
2022/10/19 08:58:02;;;;;;;9.45;6.18;;;22.00;60.90;;;;;;5035167;28;20122;-73
2022/10/19 09:00:51;;;;;;;15.07;5.93;;;22.10;60.10;;;;;;5031851;28;20056;-74
2022/10/19 09:03:45;;;;;;;7.97;5.20;;;22.10;59.50;;;;;;5032855;28;20377;-73
2022/10/19 09:06:23;;;;;;;6.68;5.07;;;22.20;59.50;;;;;;5031767;28;20033;-74
2022/10/19 09:08:54;;;;;;;12.05;4.90;;;22.30;58.80;;;;;;5035662;28;20482;-73
2022/10/19 09:11:35;;;;;;;7.13;4.25;;;22.30;58.70;;;;;;5037422;28;20022;-74
2022/10/19 09:14:15;;;;;;;6.15;4.53;;;22.40;58.30;;;;;;5037582;28;20025;-73
2022/10/19 09:16:41;;;;;;;11.13;4.70;;;22.50;58.10;;;;;;5036046;28;20037;-74
2022/10/19 09:19:28;;;;;;;8.88;4.78;;;22.60;58.30;;;;;;5036925;28;20025;-74
2022/10/19 09:22:28;;;;;;;7.53;4.85;;;22.70;58.00;;;;;;5036023;28;20032;-73
2022/10/19 09:24:59;;;;;;;8.30;5.00;;;22.70;57.30;;;;;;4959564;28;20521;-73
2022/10/19 09:27:34;;;;;;;7.72;5.05;;;22.90;57.50;;;;;;4975920;28;20035;-74
2022/10/19 09:30:16;;;;;;;7.60;5.93;;;23.00;57.00;;;;;;4959739;28;20541;-73
2022/10/19 09:32:42;;;;;;;9.25;6.55;;;23.00;56.70;;;;;;4975817;28;20030;-73
2022/10/19 09:35:20;;;;;;;9.80;7.72;;;23.10;56.90;;;;;;4975426;28;20043;-73
2022/10/19 09:37:49;;;;;;;13.73;8.98;;;23.10;56.40;;;;;;4975390;28;20077;-73
2022/10/19 09:40:22;;;;;;;12.85;8.73;;;23.10;56.00;;;;;;4975471;28;20054;-73
2022/10/19 09:43:01;;;;;;;11.55;8.10;;;23.10;56.00;;;;;;4975304;28;20045;-73
2022/10/19 09:45:51;;;;;;;9.48;7.57;;;23.00;55.90;;;;;;4975502;28;20458;-74
2022/10/19 09:48:26;;;;;;;10.48;8.27;;;22.90;56.40;;;;;;4975443;28;20047;-73
2022/10/19 09:50:58;;;;;;;11.60;8.57;;;22.80;56.60;;;;;;4975310;28;20031;-75
2022/10/19 09:53:25;;;;;;;12.82;8.43;;;22.80;56.50;;;;;;4974996;28;20034;-76
2022/10/19 09:55:57;;;;;;;10.73;7.80;;;22.70;56.50;;;;;;4975208;28;20070;-73
2022/10/19 09:58:29;;;;;;;11.23;7.97;;;22.60;56.70;;;;;;4975306;28;20049;-73
2022/10/19 10:00:56;;;;;;;12.30;8.30;;;22.60;56.90;;;;;;4983602;28;20052;-73
2022/10/19 10:03:24;;;;;;;10.20;7.78;;;22.50;57.30;;;;;;5034468;28;20064;-75
2022/10/19 10:05:50;;;;;;;9.65;7.50;;;22.40;57.30;;;;;;5036397;28;20035;-74
2022/10/19 10:08:26;;;;;;;10.73;7.50;;;22.30;57.40;;;;;;5034951;28;20037;-73
2022/10/19 10:11:12;;;;;;;9.63;7.43;;;22.20;57.70;;;;;;5034795;28;20026;-73
2022/10/19 10:13:46;;;;;;;15.20;8.77;;;22.20;58.00;;;;;;5036325;28;20370;-74
2022/10/19 10:16:18;;;;;;;9.15;7.00;;;22.10;58.30;;;;;;5036162;28;20025;-74
2022/10/19 10:18:54;;;;;;;9.52;6.35;;;22.10;58.40;;;;;;5036258;28;20108;-73
2022/10/19 10:21:31;;;;;;;6.78;5.90;;;22.10;58.20;;;;;;5034200;28;20033;-74
2022/10/19 10:24:15;;;;;;;9.38;6.53;;;22.20;58.10;;;;;;5036378;28;20413;-74
2022/10/19 10:26:48;;;;;;;6.53;4.40;;;22.20;58.10;;;;;;5035954;28;20175;-74
2022/10/19 10:29:22;;;;;;;10.57;6.70;;;22.20;57.70;;;;;;5034702;28;20025;-73
2022/10/19 10:32:11;;;;;;;6.60;4.03;;;22.20;58.00;;;;;;5034724;28;20461;-74
2022/10/19 10:34:43;;;;;;;6.25;3.63;;;22.20;57.70;;;;;;5036141;28;20033;-74
2022/10/19 10:37:29;;;;;;;6.90;4.18;;;22.20;57.40;;;;;;5035743;28;20029;-74
2022/10/19 10:39:57;;;;;;;7.22;3.67;;;22.20;57.30;;;;;;5034095;28;20036;-74
2022/10/19 10:42:43;;;;;;;3.30;2.97;;;22.30;57.00;;;;;;5034228;28;20052;-75
2022/10/19 10:45:24;;;;;;;9.60;4.63;;;22.30;57.30;;;;;;5035489;28;20370;-75
2022/10/19 10:47:51;;;;;;;5.07;3.95;;;22.30;57.10;;;;;;5034094;28;20087;-74
2022/10/19 10:50:20;;;;;;;4.60;3.30;;;22.30;56.90;;;;;;5033734;28;20512;-74
2022/10/19 10:53:01;;;;;;;5.05;3.22;;;22.30;56.40;;;;;;5033974;28;20465;-74
2022/10/19 10:55:28;;;;;;;6.80;3.38;;;22.30;56.00;;;;;;5035382;28;20351;-76
2022/10/19 10:58:24;;;;;;;4.63;3.22;;;22.40;56.20;;;;;;5033914;28;20032;-74
2022/10/19 11:00:51;;;;;;;6.85;3.00;;;22.40;56.00;;;;;;5051385;28;20485;-75
2022/10/19 11:03:28;;;;;;;6.97;3.55;;;22.40;55.40;;;;;;5054795;28;20437;-75
2022/10/19 11:05:58;;;;;;;4.90;2.95;;;22.50;55.70;;;;;;5035012;28;20087;-75
2022/10/19 11:08:38;;;;;;;7.32;3.65;;;22.60;55.70;;;;;;5035162;28;20125;-74
2022/10/19 11:11:15;;;;;;;7.70;4.35;;;22.60;55.50;;;;;;5035162;28;20514;-74
2022/10/19 11:13:52;;;;;;;7.63;3.30;;;22.60;55.30;;;;;;5034968;28;20441;-74
2022/10/19 11:16:24;;;;;;;5.18;4.22;;;22.60;55.10;;;;;;5034815;28;20053;-75
2022/10/19 11:18:55;;;;;;;7.82;3.72;;;22.70;55.20;;;;;;5035059;28;20021;-74
2022/10/19 11:21:36;;;;;;;8.45;3.92;;;22.70;55.20;;;;;;5034537;28;20366;-75
2022/10/19 11:24:07;;;;;;;10.18;3.15;;;22.70;55.60;;;;;;5017280;28;20120;-75
2022/10/19 11:26:38;;;;;;;5.88;3.88;;;22.70;55.60;;;;;;5016979;28;20482;-75
2022/10/19 11:29:31;;;;;;;5.38;4.35;;;22.70;55.40;;;;;;5034803;28;20021;-75
2022/10/19 11:31:57;;;;;;;7.97;4.07;;;22.70;55.30;;;;;;5034774;28;20021;-74
2022/10/19 11:34:23;;;;;;;9.50;5.13;;;22.70;55.40;;;;;;5024090;28;20029;-75
2022/10/19 11:37:10;;;;;;;5.93;4.57;;;22.70;55.20;;;;;;5054450;28;20330;-75
2022/10/19 11:40:01;;;;;;;8.27;4.10;;;22.70;55.30;;;;;;5054548;28;20075;-75
2022/10/19 11:42:54;;;;;;;13.00;4.85;;;22.70;54.90;;;;;;5007742;28;20037;-75
2022/10/19 11:45:32;;;;;;;6.95;4.45;;;22.70;55.00;;;;;;5036487;28;20445;-75
2022/10/19 11:47:58;;;;;;;6.65;3.45;;;22.80;55.00;;;;;;5054140;28;20033;-74
2022/10/19 11:50:58;;;;;;;4.00;3.30;;;22.90;55.30;;;;;;5053873;28;20476;-75
2022/10/19 11:53:42;;;;;;;4.97;3.42;;;22.90;55.20;;;;;;5054471;28;20025;-74
2022/10/19 11:56:15;;;;;;;5.10;2.70;;;23.00;54.30;;;;;;5053940;28;20036;-74
2022/10/19 11:58:47;;;;;;;3.13;2.47;;;23.00;53.60;;;;;;5054309;28;20032;-75
2022/10/19 12:01:22;;;;;;;3.05;2.25;;;23.00;53.20;;;;;;5054266;28;20045;-74
2022/10/19 12:04:20;;;;;;;10.90;3.13;;;23.10;53.30;;;;;;5035797;28;20354;-75
2022/10/19 12:06:55;;;;;;;4.20;2.30;;;23.00;52.70;;;;;;5053118;28;20128;-75
2022/10/19 12:09:53;;;;;;;5.93;2.60;;;23.00;53.00;;;;;;5054130;28;20033;-75
2022/10/19 12:12:29;;;;;;;6.93;2.60;;;23.00;52.70;;;;;;4934247;29;20114;-76
2022/10/19 12:15:15;;;;;;;11.55;3.47;;;23.00;52.40;;;;;;4918257;29;20036;-75
2022/10/19 12:17:46;;;;;;;9.68;2.70;;;22.90;52.80;;;;;;4933944;29;20047;-75
2022/10/19 12:20:31;;;;;;;4.25;2.60;;;22.90;52.90;;;;;;4917927;29;20118;-73
2022/10/19 12:23:01;;;;;;;9.23;2.50;;;22.90;52.70;;;;;;4918049;29;20036;-74
2022/10/19 12:25:27;;;;;;;5.45;2.50;;;22.90;52.60;;;;;;4918057;29;20519;-75
2022/10/19 12:27:54;;;;;;;3.50;2.60;;;22.90;52.60;;;;;;4933784;29;20123;-74
2022/10/19 12:30:22;;;;;;;2.63;2.35;;;22.90;52.70;;;;;;4933885;29;20545;-74
2022/10/19 12:33:15;;;;;;;2.60;2.15;;;22.90;52.70;;;;;;4934101;29;20035;-74
2022/10/19 12:36:08;;;;;;;8.23;2.58;;;22.90;52.50;;;;;;4933695;29;20099;-74
2022/10/19 12:38:36;;;;;;;6.28;2.00;;;23.00;52.50;;;;;;4934021;29;20425;-74
2022/10/19 12:41:44;;;;;;;2.97;2.00;;;22.90;51.80;;;;;;4934249;29;20484;-74
2022/10/19 12:44:12;;;;;;;2.70;2.08;;;22.90;52.20;;;;;;4933145;29;20043;-74
2022/10/19 12:46:47;;;;;;;5.15;2.00;;;22.90;52.20;;;;;;4933746;29;20047;-74
2022/10/19 12:49:26;;;;;;;3.35;2.10;;;22.90;52.70;;;;;;5033185;28;20420;-74
2022/10/19 12:51:53;;;;;;;6.57;2.38;;;22.90;52.80;;;;;;5015719;28;20034;-74
2022/10/19 12:54:28;;;;;;;2.88;2.15;;;22.90;52.30;;;;;;5015728;28;20492;-74
2022/10/19 12:56:55;;;;;;;4.50;2.13;;;22.90;52.10;;;;;;5033346;28;20037;-74
2022/10/19 12:59:32;;;;;;;3.60;1.85;;;22.90;52.40;;;;;;5011863;28;20208;-73
2022/10/19 13:02:04;;;;;;;3.22;1.90;;;22.90;52.30;;;;;;5012592;28;20046;-73